Time;durP1;ratioP1;P1;durP2;ratioP2;P2;SDS_P1;SDS_P2;PMS_P1;PMS_P2;Temp;Humidity;BMP_temperature;BMP_pressure;BME280_temperature;BME280_humidity;BME280_pressure;Samples;Min_cycle;Max_cycle;Signal;HPM_P1;HPM_P2
2023/09/10 00:01:11;;;;;;;34.75;30.45;;;17.60;99.90;;;;;;5118059;28;20130;-76
2023/09/10 00:03:38;;;;;;;34.85;29.90;;;17.70;99.90;;;;;;5117560;28;20023;-77
2023/09/10 00:06:05;;;;;;;37.72;33.58;;;17.60;99.90;;;;;;5117667;28;20031;-76
2023/09/10 00:08:33;;;;;;;36.88;32.95;;;17.70;99.90;;;;;;5117961;28;20032;-76
2023/09/10 00:10:58;;;;;;;38.58;33.90;;;17.70;99.90;;;;;;5116969;28;20024;-76
2023/09/10 00:13:25;;;;;;;42.50;36.00;;;17.60;99.90;;;;;;5117837;28;20354;-76
2023/09/10 00:15:51;;;;;;;39.20;34.55;;;17.60;99.90;;;;;;5117874;28;20406;-76
2023/09/10 00:18:18;;;;;;;39.22;35.03;;;17.60;99.90;;;;;;5117421;28;20469;-76
2023/09/10 00:20:44;;;;;;;38.67;33.97;;;17.60;99.90;;;;;;5117585;28;20484;-77
2023/09/10 00:23:10;;;;;;;42.13;36.45;;;17.50;99.90;;;;;;5116986;28;20024;-77
2023/09/10 00:25:35;;;;;;;53.92;45.05;;;17.50;99.90;;;;;;5117720;28;20028;-76
2023/09/10 00:28:02;;;;;;;44.17;39.33;;;17.40;99.90;;;;;;5117711;28;20373;-76
2023/09/10 00:30:28;;;;;;;43.63;38.85;;;17.00;99.90;;;;;;5117036;28;20461;-76
2023/09/10 00:32:54;;;;;;;47.72;40.05;;;17.60;99.90;;;;;;5116981;28;20035;-76
2023/09/10 00:35:19;;;;;;;52.67;40.58;;;17.70;99.90;;;;;;5116962;28;20023;-76
2023/09/10 00:37:45;;;;;;;43.60;36.83;;;17.70;99.90;;;;;;5116913;28;20019;-76
2023/09/10 00:40:11;;;;;;;40.22;35.85;;;17.40;99.90;;;;;;5116674;28;20387;-76
2023/09/10 00:42:37;;;;;;;42.08;35.30;;;17.40;99.90;;;;;;5117064;28;20030;-76
2023/09/10 00:45:05;;;;;;;42.63;37.00;;;17.40;99.90;;;;;;5117255;28;20481;-76
2023/09/10 00:47:31;;;;;;;44.83;38.22;;;17.40;99.90;;;;;;5117277;28;20410;-76
2023/09/10 00:49:57;;;;;;;46.28;39.85;;;17.30;99.90;;;;;;5116059;28;20050;-76
2023/09/10 00:52:25;;;;;;;48.58;41.85;;;17.30;99.90;;;;;;5116644;28;20016;-77
2023/09/10 00:54:51;;;;;;;44.47;39.53;;;17.50;99.90;;;;;;5117023;28;20055;-76
2023/09/10 00:57:16;;;;;;;47.03;39.90;;;17.30;99.90;;;;;;5117061;28;20351;-76
2023/09/10 00:59:43;;;;;;;43.03;38.10;;;17.30;99.90;;;;;;5115850;28;20477;-76
2023/09/10 01:02:09;;;;;;;41.15;36.55;;;17.20;99.90;;;;;;5116296;28;20034;-76
2023/09/10 01:04:35;;;;;;;42.60;36.60;;;17.30;99.90;;;;;;5116386;28;20064;-76
2023/09/10 01:07:02;;;;;;;42.17;35.53;;;17.20;99.90;;;;;;5116279;28;20114;-76
2023/09/10 01:09:28;;;;;;;47.83;40.78;;;17.20;99.90;;;;;;5116154;28;20030;-76
2023/09/10 01:12:23;;;;;;;45.40;39.22;;;17.20;99.90;;;;;;5115401;28;20477;-77
2023/09/10 01:15:05;;;;;;;40.58;36.20;;;17.30;99.90;;;;;;5115586;28;20028;-76
2023/09/10 01:17:47;;;;;;;45.42;38.75;;;17.20;99.90;;;;;;5116350;28;20538;-76
2023/09/10 01:20:53;;;;;;;42.43;37.93;;;16.90;99.90;;;;;;5116355;28;20023;-76
2023/09/10 01:23:30;;;;;;;42.97;37.28;;;17.20;99.90;;;;;;5115477;28;20062;-76
2023/09/10 01:25:56;;;;;;;46.50;40.30;;;17.20;99.90;;;;;;5116005;28;20102;-76
2023/09/10 01:28:22;;;;;;;61.58;51.20;;;17.10;99.90;;;;;;5116284;28;20027;-76
2023/09/10 01:30:48;;;;;;;53.47;44.63;;;17.20;99.90;;;;;;5115453;28;20023;-76
2023/09/10 01:33:21;;;;;;;54.92;44.80;;;17.20;99.90;;;;;;5116211;28;20066;-76
2023/09/10 01:35:57;;;;;;;47.53;39.92;;;17.10;99.90;;;;;;5116002;28;20027;-76
2023/09/10 01:41:05;;;;;;;51.63;44.80;;;17.10;99.90;;;;;;5112004;27;20284;-76
2023/09/10 01:43:32;;;;;;;48.80;41.72;;;17.10;99.90;;;;;;5111538;28;20069;-76
2023/09/10 01:45:57;;;;;;;48.83;41.10;;;17.10;99.90;;;;;;5112167;28;20511;-76
2023/09/10 01:48:26;;;;;;;55.03;46.70;;;16.90;99.90;;;;;;5111837;28;20024;-76
2023/09/10 01:50:53;;;;;;;50.13;43.25;;;17.10;99.90;;;;;;5111709;28;20042;-76
2023/09/10 01:53:19;;;;;;;51.42;42.58;;;17.10;99.90;;;;;;5112057;28;20020;-75
2023/09/10 01:55:45;;;;;;;59.20;49.30;;;17.00;99.90;;;;;;5112143;28;20042;-76
2023/09/10 01:58:13;;;;;;;54.80;44.53;;;17.00;99.90;;;;;;5111531;28;20084;-76
2023/09/10 02:00:39;;;;;;;55.97;47.08;;;17.00;99.90;;;;;;5111541;28;20445;-76
2023/09/10 02:03:05;;;;;;;51.03;43.95;;;17.00;99.90;;;;;;5111915;28;20023;-76
2023/09/10 02:05:30;;;;;;;51.13;43.15;;;16.90;99.90;;;;;;5111597;28;20385;-77
2023/09/10 02:07:56;;;;;;;49.53;42.78;;;17.00;99.90;;;;;;5112020;28;20160;-77
2023/09/10 02:10:23;;;;;;;51.05;44.38;;;16.90;99.90;;;;;;5111200;28;20023;-77
2023/09/10 02:12:48;;;;;;;56.95;47.40;;;16.90;99.90;;;;;;5112037;28;20032;-76
2023/09/10 02:15:16;;;;;;;48.50;42.47;;;16.80;99.90;;;;;;5111980;28;20030;-76
2023/09/10 02:17:41;;;;;;;49.95;43.15;;;16.80;99.90;;;;;;5111716;28;20485;-76
2023/09/10 02:20:09;;;;;;;48.90;43.55;;;16.80;99.90;;;;;;5111396;28;20058;-76
2023/09/10 02:22:37;;;;;;;48.40;42.13;;;16.90;99.90;;;;;;5110972;28;20066;-76
2023/09/10 02:25:04;;;;;;;48.35;41.08;;;16.80;99.90;;;;;;5110482;28;20023;-76
2023/09/10 02:27:31;;;;;;;47.90;42.15;;;16.80;99.90;;;;;;5111014;28;20023;-76
2023/09/10 02:29:57;;;;;;;46.47;40.58;;;16.70;99.90;;;;;;5111277;28;20057;-76
2023/09/10 02:32:23;;;;;;;46.85;41.38;;;16.80;99.90;;;;;;5111138;28;20031;-76
2023/09/10 02:34:51;;;;;;;42.90;38.20;;;16.70;99.90;;;;;;5111217;28;20061;-76
2023/09/10 02:37:17;;;;;;;44.42;38.53;;;16.70;99.90;;;;;;5111072;28;20028;-76
2023/09/10 02:39:43;;;;;;;46.53;40.80;;;16.70;99.90;;;;;;5110188;28;20040;-76
2023/09/10 02:42:09;;;;;;;48.97;41.78;;;16.70;99.90;;;;;;5111072;28;20481;-76
2023/09/10 02:44:35;;;;;;;45.63;39.80;;;16.70;99.90;;;;;;5110279;28;20027;-76
2023/09/10 02:47:00;;;;;;;54.83;46.60;;;16.50;99.90;;;;;;5110313;28;20027;-76
2023/09/10 02:49:26;;;;;;;50.10;43.45;;;16.50;99.90;;;;;;5110621;28;20032;-76
2023/09/10 02:51:52;;;;;;;57.00;49.03;;;16.60;99.90;;;;;;5099723;28;20059;-76
2023/09/10 02:54:17;;;;;;;55.70;48.92;;;16.60;99.90;;;;;;5097282;28;20043;-76
2023/09/10 02:56:43;;;;;;;47.88;41.75;;;16.60;99.90;;;;;;5096476;28;20020;-76
2023/09/10 02:59:19;;;;;;;50.78;41.78;;;16.50;99.90;;;;;;5096667;28;20032;-76
2023/09/10 03:01:45;;;;;;;47.33;41.30;;;16.50;99.90;;;;;;5096335;28;20066;-76
2023/09/10 03:04:10;;;;;;;43.85;39.13;;;16.50;99.90;;;;;;5097082;28;20028;-76
2023/09/10 03:06:36;;;;;;;42.85;37.33;;;16.50;99.90;;;;;;5096654;28;20101;-76
2023/09/10 03:09:02;;;;;;;42.03;37.45;;;16.50;99.90;;;;;;5096594;28;20077;-77
2023/09/10 03:11:31;;;;;;;42.75;38.17;;;16.40;99.90;;;;;;5096520;28;20024;-76
2023/09/10 03:13:56;;;;;;;40.05;35.63;;;16.40;99.90;;;;;;5095703;28;20024;-76
2023/09/10 03:16:24;;;;;;;41.25;35.53;;;16.40;99.90;;;;;;5096326;28;20076;-76
2023/09/10 03:18:49;;;;;;;41.03;36.50;;;16.40;99.90;;;;;;5095989;28;20020;-76
2023/09/10 03:21:15;;;;;;;49.67;43.63;;;16.40;99.90;;;;;;5096669;28;20031;-76
2023/09/10 03:23:41;;;;;;;48.88;42.35;;;16.40;99.90;;;;;;5096691;28;20032;-76
2023/09/10 03:26:11;;;;;;;47.63;41.38;;;16.40;99.90;;;;;;5096652;28;20146;-76
2023/09/10 03:28:36;;;;;;;50.92;42.88;;;16.50;99.90;;;;;;5095432;28;20020;-76
2023/09/10 03:31:03;;;;;;;51.75;44.95;;;16.40;99.90;;;;;;5096600;28;20028;-76
2023/09/10 03:33:28;;;;;;;46.85;39.47;;;16.30;99.90;;;;;;5096234;28;20024;-76
2023/09/10 03:35:54;;;;;;;47.92;40.35;;;16.30;99.90;;;;;;5096336;28;20031;-76
2023/09/10 03:38:20;;;;;;;47.17;38.63;;;16.30;99.90;;;;;;5096117;28;20024;-76
2023/09/10 03:40:45;;;;;;;43.97;38.25;;;16.30;99.90;;;;;;5095046;28;20054;-76
2023/09/10 03:43:11;;;;;;;45.22;38.65;;;16.20;99.90;;;;;;5095378;28;20439;-76
2023/09/10 03:45:36;;;;;;;42.28;36.17;;;16.10;99.90;;;;;;5095972;28;20024;-76
2023/09/10 03:48:02;;;;;;;42.45;34.90;;;16.20;99.90;;;;;;5096144;28;20063;-76
2023/09/10 03:50:28;;;;;;;37.80;33.75;;;16.20;99.90;;;;;;5095467;28;20165;-76
2023/09/10 03:52:54;;;;;;;38.78;34.58;;;16.10;99.90;;;;;;5095783;28;20111;-76
2023/09/10 03:55:19;;;;;;;38.63;34.08;;;16.20;99.90;;;;;;5096017;28;20028;-76
2023/09/10 03:57:45;;;;;;;37.30;33.25;;;16.20;99.90;;;;;;5095368;28;20032;-76
2023/09/10 04:00:11;;;;;;;38.60;33.60;;;16.10;99.90;;;;;;5095705;28;20032;-76
2023/09/10 04:02:37;;;;;;;38.33;33.63;;;16.50;99.90;;;;;;5094488;28;20050;-76
2023/09/10 04:05:04;;;;;;;39.22;34.83;;;15.90;99.90;;;;;;5094655;28;20115;-76
2023/09/10 04:07:30;;;;;;;36.97;32.95;;;16.00;99.90;;;;;;5094974;28;20058;-76
2023/09/10 04:09:55;;;;;;;40.10;35.80;;;16.00;99.90;;;;;;5095546;28;20024;-76
2023/09/10 04:12:21;;;;;;;37.60;33.20;;;15.90;99.90;;;;;;5095666;28;20040;-76
2023/09/10 04:14:46;;;;;;;39.30;35.00;;;15.90;99.90;;;;;;5095309;28;20363;-76
2023/09/10 04:17:16;;;;;;;40.22;35.83;;;15.90;99.90;;;;;;5095541;28;20031;-76
2023/09/10 04:19:42;;;;;;;38.65;33.40;;;15.90;99.90;;;;;;5095202;28;20078;-76
2023/09/10 04:22:08;;;;;;;41.97;36.53;;;15.90;99.90;;;;;;5095265;28;20028;-76
2023/09/10 04:24:33;;;;;;;59.13;47.92;;;15.90;99.90;;;;;;5095408;28;20063;-76
2023/09/10 04:26:59;;;;;;;50.03;43.30;;;15.90;99.90;;;;;;5094390;28;20035;-76
2023/09/10 04:29:25;;;;;;;49.78;41.50;;;15.80;99.90;;;;;;5094802;28;20024;-76
2023/09/10 04:31:51;;;;;;;48.35;40.50;;;15.80;99.90;;;;;;5094729;28;20039;-76
2023/09/10 04:34:16;;;;;;;48.15;40.90;;;15.80;99.90;;;;;;5094921;28;20070;-76
2023/09/10 04:36:42;;;;;;;46.60;40.42;;;15.80;99.90;;;;;;5095182;28;20129;-76
2023/09/10 04:39:08;;;;;;;41.95;36.83;;;15.80;99.90;;;;;;5094204;28;20055;-76
2023/09/10 04:41:35;;;;;;;43.65;37.45;;;15.90;99.90;;;;;;5095147;28;20480;-76
2023/09/10 04:44:01;;;;;;;53.28;43.75;;;15.80;99.90;;;;;;5095005;28;20028;-76
2023/09/10 04:46:27;;;;;;;52.05;43.63;;;15.80;99.90;;;;;;5095055;28;20027;-75
2023/09/10 04:48:53;;;;;;;48.53;41.15;;;15.80;99.90;;;;;;5094525;28;20363;-75
2023/09/10 04:51:19;;;;;;;56.13;45.38;;;15.80;99.90;;;;;;5094687;28;20490;-76
2023/09/10 04:53:44;;;;;;;54.85;45.15;;;15.80;99.90;;;;;;5094773;28;20024;-75
2023/09/10 04:56:11;;;;;;;54.28;44.35;;;15.90;99.90;;;;;;5094621;28;20097;-76
2023/09/10 04:58:36;;;;;;;53.05;44.65;;;15.80;99.90;;;;;;5094338;28;20461;-76
2023/09/10 05:01:02;;;;;;;54.90;45.85;;;15.90;99.90;;;;;;5094854;28;20032;-75
2023/09/10 05:03:28;;;;;;;50.83;42.25;;;15.80;99.90;;;;;;5094556;28;20020;-76
2023/09/10 05:05:57;;;;;;;46.80;39.65;;;15.80;99.90;;;;;;5094487;28;20070;-75
2023/09/10 05:08:23;;;;;;;61.45;49.35;;;15.80;99.90;;;;;;5094742;28;20032;-75
2023/09/10 05:10:49;;;;;;;60.90;47.47;;;15.80;99.90;;;;;;5094400;28;20462;-76
2023/09/10 05:13:14;;;;;;;58.05;48.42;;;15.90;99.90;;;;;;5094567;28;20114;-75
2023/09/10 05:15:40;;;;;;;59.50;48.88;;;15.90;99.90;;;;;;5093901;28;20028;-75
2023/09/10 05:18:05;;;;;;;59.97;48.58;;;15.90;99.90;;;;;;5093615;28;20036;-75
2023/09/10 05:20:32;;;;;;;67.05;50.78;;;16.00;99.90;;;;;;5093976;28;20036;-75
2023/09/10 05:22:58;;;;;;;70.57;56.92;;;16.10;99.90;;;;;;5094210;28;20034;-76
2023/09/10 05:25:23;;;;;;;69.22;55.95;;;16.20;99.90;;;;;;5094195;28;20024;-75
2023/09/10 05:27:49;;;;;;;57.97;48.88;;;16.20;99.90;;;;;;5094070;28;20043;-76
2023/09/10 05:30:15;;;;;;;59.42;46.13;;;16.30;99.90;;;;;;5094328;28;20024;-77
2023/09/10 05:32:40;;;;;;;53.80;45.60;;;16.40;99.90;;;;;;5094471;28;20035;-76
2023/09/10 05:35:07;;;;;;;45.70;39.72;;;16.40;99.90;;;;;;5094403;28;20028;-76
2023/09/10 05:37:32;;;;;;;56.50;47.30;;;16.50;99.90;;;;;;5093501;28;20461;-75
2023/09/10 05:39:58;;;;;;;61.35;50.95;;;16.60;99.90;;;;;;5093364;28;20124;-76
2023/09/10 05:42:24;;;;;;;50.05;43.70;;;16.70;99.90;;;;;;5093633;28;20032;-76
2023/09/10 05:44:52;;;;;;;50.15;43.42;;;16.80;99.90;;;;;;5094271;28;20500;-76
2023/09/10 05:47:19;;;;;;;41.03;36.53;;;17.00;99.90;;;;;;5094258;28;20099;-77
2023/09/10 05:49:46;;;;;;;49.63;43.47;;;17.30;99.90;;;;;;5093952;28;20085;-77
2023/09/10 05:52:12;;;;;;;48.78;41.72;;;17.70;99.90;;;;;;5093802;28;20063;-76
2023/09/10 05:54:37;;;;;;;43.63;38.67;;;17.90;99.90;;;;;;5094251;28;20426;-76
2023/09/10 05:57:03;;;;;;;40.78;36.20;;;18.20;99.90;;;;;;5093629;28;20028;-77
2023/09/10 05:59:28;;;;;;;39.40;35.10;;;18.60;99.90;;;;;;5093680;28;20031;-77
2023/09/10 06:01:54;;;;;;;39.72;35.45;;;18.90;99.90;;;;;;5093263;28;20417;-77
2023/09/10 06:04:20;;;;;;;36.20;31.77;;;19.20;99.90;;;;;;5093836;28;20530;-77
2023/09/10 06:06:45;;;;;;;37.65;33.60;;;19.20;99.90;;;;;;5093440;28;20039;-77
2023/09/10 06:09:11;;;;;;;36.88;32.03;;;19.20;99.90;;;;;;5094057;28;20090;-76
2023/09/10 06:11:37;;;;;;;37.55;32.75;;;19.20;99.90;;;;;;5093511;28;20077;-77
2023/09/10 06:14:02;;;;;;;38.65;33.78;;;19.40;99.90;;;;;;5094100;28;20090;-77
2023/09/10 06:16:28;;;;;;;37.90;33.78;;;19.70;99.90;;;;;;5093623;28;20024;-76
2023/09/10 06:18:54;;;;;;;37.53;32.03;;;19.80;99.90;;;;;;5093657;28;20038;-76
2023/09/10 06:21:19;;;;;;;37.22;33.08;;;19.80;99.90;;;;;;5093338;28;20105;-76
2023/09/10 06:23:45;;;;;;;34.90;31.10;;;20.20;99.90;;;;;;5093286;28;20017;-77
2023/09/10 06:26:12;;;;;;;30.73;27.27;;;21.00;99.90;;;;;;5095048;28;20485;-76
2023/09/10 06:28:38;;;;;;;33.53;28.48;;;22.20;56.60;;;;;;5097675;28;20027;-77
2023/09/10 06:31:06;;;;;;;31.90;26.08;;;23.00;1.00;;;;;;5097395;28;20072;-77
2023/09/10 06:33:37;;;;;;;26.13;22.85;;;23.70;1.00;;;;;;5097167;28;20028;-77
2023/09/10 06:36:03;;;;;;;26.70;24.05;;;24.40;1.00;;;;;;5097568;28;20024;-77
2023/09/10 06:38:29;;;;;;;26.05;23.25;;;24.90;99.90;;;;;;5097492;28;20038;-77
2023/09/10 06:40:55;;;;;;;28.67;23.35;;;25.20;1.00;;;;;;5096066;28;20054;-77
2023/09/10 06:43:20;;;;;;;25.58;22.85;;;25.80;18.20;;;;;;5097558;28;20063;-77
2023/09/10 06:45:46;;;;;;;26.50;22.73;;;26.00;99.90;;;;;;5097372;28;20027;-77
2023/09/10 06:48:11;;;;;;;23.50;21.00;;;26.30;99.90;;;;;;5097347;28;20032;-77
2023/09/10 06:50:37;;;;;;;24.67;21.73;;;26.20;84.10;;;;;;5097030;28;20032;-77
2023/09/10 06:53:03;;;;;;;26.27;21.50;;;26.20;1.00;;;;;;5096913;28;20469;-77
2023/09/10 06:55:28;;;;;;;22.50;19.52;;;26.30;99.90;;;;;;5096891;28;20193;-77
2023/09/10 06:57:55;;;;;;;25.50;20.48;;;26.60;1.00;;;;;;5097096;28;20078;-78
2023/09/10 07:00:21;;;;;;;21.65;19.50;;;26.40;9.30;;;;;;5097004;28;20118;-78
2023/09/10 07:02:47;;;;;;;20.65;18.45;;;26.90;99.90;;;;;;5096529;28;20027;-78
2023/09/10 07:05:13;;;;;;;20.50;18.55;;;27.30;1.00;;;;;;5097015;28;20032;-78
2023/09/10 07:07:38;;;;;;;20.08;18.17;;;27.70;28.20;;;;;;5096421;28;20381;-77
2023/09/10 07:10:05;;;;;;;20.50;18.30;;;28.50;99.90;;;;;;5095973;28;20024;-77
2023/09/10 07:12:31;;;;;;;21.20;17.20;;;28.50;99.90;;;;;;5096204;28;20028;-78
2023/09/10 07:14:57;;;;;;;19.75;17.10;;;29.00;1.00;;;;;;5095589;28;20123;-78
2023/09/10 07:17:23;;;;;;;24.15;17.27;;;28.80;1.00;;;;;;5096378;28;20138;-78
2023/09/10 07:19:48;;;;;;;22.45;17.98;;;29.00;1.00;;;;;;5096274;28;20085;-77
2023/09/10 07:22:14;;;;;;;22.20;17.23;;;28.30;99.90;;;;;;5096397;28;20468;-78
2023/09/10 07:24:40;;;;;;;19.33;16.83;;;27.80;99.90;;;;;;5096750;28;20370;-77
2023/09/10 07:27:06;;;;;;;19.73;15.85;;;27.50;99.90;;;;;;5096393;28;20398;-78
2023/09/10 07:29:31;;;;;;;24.52;18.88;;;28.00;99.90;;;;;;5096311;28;20036;-78
2023/09/10 07:31:57;;;;;;;22.98;18.30;;;28.20;99.90;;;;;;5095929;28;20040;-78
2023/09/10 07:34:23;;;;;;;18.33;16.50;;;28.40;17.80;;;;;;5096489;28;20474;-78
2023/09/10 07:36:49;;;;;;;22.60;16.98;;;28.40;99.90;;;;;;5096118;28;20106;-78
2023/09/10 07:39:17;;;;;;;21.15;18.98;;;28.70;99.90;;;;;;5095871;28;20479;-78
2023/09/10 07:41:42;;;;;;;21.13;18.92;;;28.70;93.10;;;;;;5095948;28;20062;-77
2023/09/10 07:44:08;;;;;;;22.42;17.75;;;28.50;93.20;;;;;;5095700;28;20025;-78
2023/09/10 07:46:34;;;;;;;22.98;18.83;;;28.30;99.90;;;;;;5095839;28;20449;-79
2023/09/10 07:49:00;;;;;;;23.17;19.38;;;28.00;18.70;;;;;;5095705;28;20424;-79
2023/09/10 07:51:25;;;;;;;20.45;18.15;;;28.50;99.90;;;;;;5095867;28;20028;-78
2023/09/10 07:53:51;;;;;;;21.25;18.90;;;29.40;1.00;;;;;;5095958;28;20074;-78
2023/09/10 07:56:17;;;;;;;20.45;18.27;;;29.90;99.90;;;;;;5095822;28;20327;-78
2023/09/10 07:58:42;;;;;;;23.52;17.58;;;29.90;99.90;;;;;;5095977;28;20365;-78
2023/09/10 08:01:08;;;;;;;18.45;16.08;;;29.70;99.90;;;;;;5095148;28;20020;-78
2023/09/10 08:03:36;;;;;;;21.10;16.73;;;30.30;99.90;;;;;;5095607;28;20028;-78
2023/09/10 08:06:02;;;;;;;20.45;17.60;;;30.70;99.90;;;;;;5095172;28;20020;-78
2023/09/10 08:08:28;;;;;;;21.25;16.25;;;30.40;31.30;;;;;;5095833;28;20127;-78
2023/09/10 08:10:53;;;;;;;22.48;17.73;;;31.10;3.50;;;;;;5094403;28;20051;-78
2023/09/10 08:13:20;;;;;;;20.77;17.83;;;31.40;1.00;;;;;;5095075;28;20020;-78
2023/09/10 08:15:46;;;;;;;20.80;18.30;;;31.20;1.00;;;;;;5095536;28;20474;-78
2023/09/10 08:18:12;;;;;;;19.33;17.40;;;31.10;1.00;;;;;;5095261;28;20040;-78
2023/09/10 08:20:39;;;;;;;19.88;16.77;;;30.90;1.00;;;;;;5094382;28;20028;-78
2023/09/10 08:23:05;;;;;;;18.85;16.40;;;31.80;1.00;;;;;;5095079;28;20409;-78
2023/09/10 08:25:32;;;;;;;21.88;17.70;;;31.90;1.00;;;;;;5095524;28;20525;-79
2023/09/10 08:27:58;;;;;;;21.65;17.40;;;31.50;99.90;;;;;;5094862;28;20024;-79
2023/09/10 08:30:24;;;;;;;20.38;17.10;;;31.50;99.90;;;;;;5095374;28;20024;-79
2023/09/10 08:32:50;;;;;;;19.45;16.13;;;31.50;1.00;;;;;;5095385;28;20489;-79
2023/09/10 08:35:18;;;;;;;25.88;16.83;;;31.10;1.00;;;;;;5094994;28;20086;-80
2023/09/10 08:37:43;;;;;;;19.42;16.02;;;31.20;1.00;;;;;;5095301;28;20032;-79
2023/09/10 08:40:10;;;;;;;24.98;17.23;;;31.60;1.00;;;;;;5094205;28;20398;-79
2023/09/10 08:43:01;;;;;;;22.00;17.70;;;31.80;1.00;;;;;;5094895;28;20024;-79
2023/09/10 08:45:27;;;;;;;20.75;16.73;;;32.40;99.90;;;;;;5094905;28;20020;-79
2023/09/10 08:47:55;;;;;;;20.13;17.20;;;32.30;99.90;;;;;;5094966;28;20101;-79
2023/09/10 08:50:23;;;;;;;17.38;15.60;;;32.70;99.90;;;;;;5094178;28;20020;-79
2023/09/10 08:52:50;;;;;;;17.88;15.48;;;32.30;99.90;;;;;;5094954;28;20031;-79
2023/09/10 08:55:16;;;;;;;15.23;13.75;;;32.20;99.90;;;;;;5094116;28;20020;-78
2023/09/10 08:57:44;;;;;;;20.27;16.02;;;32.70;99.90;;;;;;5094856;28;20035;-78
2023/09/10 09:00:12;;;;;;;18.25;16.35;;;32.90;99.90;;;;;;5094341;28;20024;-79
2023/09/10 09:02:40;;;;;;;18.27;16.30;;;33.50;99.90;;;;;;5094057;28;20108;-78
2023/09/10 09:05:06;;;;;;;17.20;15.32;;;33.30;99.90;;;;;;5094685;28;20020;-79
2023/09/10 09:07:38;;;;;;;18.08;14.15;;;33.10;99.90;;;;;;5094715;28;20176;-78
2023/09/10 09:10:08;;;;;;;17.10;15.43;;;33.10;99.90;;;;;;5094773;28;20466;-78
2023/09/10 09:12:35;;;;;;;19.15;16.35;;;33.10;99.90;;;;;;5094671;28;20112;-79
2023/09/10 09:15:03;;;;;;;18.77;16.75;;;33.50;99.90;;;;;;5094600;28;20358;-78
2023/09/10 09:17:29;;;;;;;16.17;14.52;;;33.10;99.90;;;;;;5093957;28;20028;-78
2023/09/10 09:19:56;;;;;;;18.13;16.17;;;32.90;99.90;;;;;;5093413;28;20119;-78
2023/09/10 09:22:25;;;;;;;17.27;15.27;;;31.80;99.90;;;;;;5094044;28;20035;-78
2023/09/10 09:24:51;;;;;;;16.75;13.02;;;32.30;99.90;;;;;;5094231;28;20020;-79
2023/09/10 09:27:17;;;;;;;16.45;13.40;;;32.80;99.90;;;;;;5094391;28;20024;-79
2023/09/10 09:29:43;;;;;;;16.98;15.23;;;32.40;99.90;;;;;;5093931;28;20473;-79
2023/09/10 09:32:08;;;;;;;17.85;15.48;;;32.30;99.90;;;;;;5094429;28;20112;-79
2023/09/10 09:34:34;;;;;;;18.55;14.60;;;32.50;99.90;;;;;;5094394;28;20433;-79
2023/09/10 09:37:01;;;;;;;15.98;14.32;;;32.80;99.90;;;;;;5093733;28;20482;-79
2023/09/10 09:39:29;;;;;;;16.42;14.73;;;33.50;99.90;;;;;;5093447;28;20444;-79
2023/09/10 09:41:55;;;;;;;14.68;12.40;;;33.20;99.90;;;;;;5093076;28;20020;-78
2023/09/10 09:44:21;;;;;;;15.18;13.63;;;33.20;99.90;;;;;;5094055;28;20036;-78
2023/09/10 09:46:48;;;;;;;17.08;13.68;;;32.40;99.90;;;;;;5093390;28;20102;-78
2023/09/10 09:49:14;;;;;;;16.13;13.00;;;32.50;99.90;;;;;;5093898;28;20420;-78
2023/09/10 09:51:40;;;;;;;13.82;12.40;;;32.60;99.90;;;;;;5093411;28;20040;-79
2023/09/10 09:54:07;;;;;;;13.30;12.05;;;33.30;99.90;;;;;;5093829;28;20029;-79
2023/09/10 09:56:33;;;;;;;17.83;12.57;;;32.90;99.90;;;;;;5094188;28;20122;-78
2023/09/10 09:59:00;;;;;;;17.67;12.95;;;33.00;99.90;;;;;;5094068;28;20059;-78
2023/09/10 10:01:25;;;;;;;13.95;12.25;;;32.70;99.90;;;;;;5095122;28;20050;-78
2023/09/10 10:03:52;;;;;;;12.27;10.50;;;32.40;99.90;;;;;;5097878;28;20024;-78
2023/09/10 10:06:18;;;;;;;16.67;12.77;;;33.10;99.90;;;;;;5097255;28;20020;-78
2023/09/10 10:08:49;;;;;;;13.00;11.25;;;33.40;99.90;;;;;;5096831;28;20024;-78
2023/09/10 10:11:17;;;;;;;13.23;11.38;;;34.10;99.90;;;;;;5097700;28;20089;-78
2023/09/10 10:13:43;;;;;;;13.70;10.60;;;33.80;99.90;;;;;;5097749;28;20073;-78
2023/09/10 10:16:09;;;;;;;17.80;10.70;;;33.50;99.90;;;;;;5097730;28;20028;-79
2023/09/10 10:18:35;;;;;;;10.95;9.77;;;33.90;99.90;;;;;;5098001;28;20020;-78
2023/09/10 10:21:03;;;;;;;12.63;8.57;;;34.00;99.90;;;;;;5096782;28;20115;-79
2023/09/10 10:23:28;;;;;;;12.60;8.75;;;33.20;99.90;;;;;;5097125;28;20023;-78
2023/09/10 10:25:58;;;;;;;13.57;9.82;;;33.90;99.90;;;;;;5097271;28;20020;-79
2023/09/10 10:28:24;;;;;;;12.90;8.40;;;33.60;99.90;;;;;;5097372;28;20081;-79
2023/09/10 10:30:55;;;;;;;11.02;8.65;;;33.40;99.90;;;;;;5097529;28;20469;-78
2023/09/10 10:33:23;;;;;;;13.23;9.13;;;33.50;99.90;;;;;;5098177;28;20480;-78
2023/09/10 10:36:03;;;;;;;13.68;8.82;;;33.30;99.90;;;;;;5097487;28;20043;-79
2023/09/10 10:38:33;;;;;;;10.60;9.18;;;34.00;99.20;;;;;;5097880;28;20062;-78
2023/09/10 10:41:04;;;;;;;16.58;9.07;;;33.30;95.80;;;;;;5097737;28;20032;-78
2023/09/10 10:43:36;;;;;;;10.98;8.25;;;33.70;99.90;;;;;;5098414;28;20119;-78
2023/09/10 10:46:04;;;;;;;8.75;7.00;;;33.30;98.20;;;;;;5097729;28;20040;-78
2023/09/10 10:48:34;;;;;;;13.32;6.95;;;33.50;76.00;;;;;;5097434;28;20523;-79
2023/09/10 10:51:02;;;;;;;10.82;7.38;;;33.80;65.50;;;;;;5098027;28;20028;-78
2023/09/10 10:53:29;;;;;;;15.82;8.07;;;32.60;51.50;;;;;;5097234;28;20366;-78
2023/09/10 10:55:58;;;;;;;11.13;6.35;;;32.50;64.60;;;;;;5097708;28;20466;-78
2023/09/10 10:58:25;;;;;;;15.40;6.43;;;32.50;35.30;;;;;;5097509;28;20500;-78
2023/09/10 11:00:53;;;;;;;11.13;7.53;;;32.60;25.60;;;;;;5096744;28;20055;-78
2023/09/10 11:03:20;;;;;;;15.95;7.53;;;32.30;66.10;;;;;;5096897;28;20343;-78
2023/09/10 11:06:06;;;;;;;14.18;7.15;;;32.40;53.80;;;;;;5096843;28;20074;-78
2023/09/10 11:08:34;;;;;;;13.60;7.22;;;32.60;74.10;;;;;;5096612;28;20027;-78
2023/09/10 11:11:01;;;;;;;14.75;8.00;;;32.10;91.90;;;;;;5095680;28;20028;-79
2023/09/10 11:13:27;;;;;;;16.83;7.72;;;32.40;83.00;;;;;;5096432;28;20470;-78
2023/09/10 11:16:13;;;;;;;19.75;8.25;;;32.40;94.40;;;;;;5096839;28;20032;-78
2023/09/10 11:18:41;;;;;;;17.73;8.45;;;32.30;99.90;;;;;;5096726;28;20028;-78
2023/09/10 11:21:10;;;;;;;21.00;8.50;;;32.20;99.90;;;;;;5095965;28;20032;-78
2023/09/10 11:23:38;;;;;;;16.90;9.20;;;31.70;99.90;;;;;;5096477;28;20408;-78
2023/09/10 11:26:27;;;;;;;11.93;8.60;;;31.20;99.90;;;;;;5096409;28;20024;-78
2023/09/10 11:28:56;;;;;;;17.65;8.98;;;31.10;99.90;;;;;;5095847;28;20043;-78
2023/09/10 11:31:49;;;;;;;15.80;9.00;;;31.10;99.90;;;;;;5095604;28;20023;-78
2023/09/10 11:37:01;;;;;;;19.98;9.13;;;31.20;99.90;;;;;;5071506;28;20441;-78
2023/09/10 11:39:27;;;;;;;17.52;9.65;;;31.20;99.90;;;;;;5070981;28;20031;-79
2023/09/10 11:41:56;;;;;;;19.20;8.23;;;31.60;99.90;;;;;;5070839;28;20528;-78
2023/09/10 11:44:21;;;;;;;18.60;8.88;;;31.70;99.90;;;;;;5071037;28;20449;-78
2023/09/10 11:46:48;;;;;;;20.60;9.07;;;31.60;99.90;;;;;;5070753;28;20025;-78
2023/09/10 11:49:15;;;;;;;16.58;9.25;;;31.40;99.90;;;;;;5070999;28;20047;-78
2023/09/10 11:51:41;;;;;;;23.13;8.65;;;31.30;99.90;;;;;;5070849;28;20025;-78
2023/09/10 11:54:07;;;;;;;20.88;9.30;;;31.50;99.90;;;;;;5071087;28;20035;-78
2023/09/10 11:56:33;;;;;;;17.55;8.23;;;31.60;99.90;;;;;;5071105;28;20104;-78
2023/09/10 11:59:00;;;;;;;24.35;8.57;;;31.70;99.90;;;;;;5070495;28;20115;-78
2023/09/10 12:01:25;;;;;;;25.40;9.23;;;31.80;99.90;;;;;;5071050;28;20058;-78
2023/09/10 12:03:51;;;;;;;19.30;8.82;;;31.50;99.90;;;;;;5070838;28;20028;-78
2023/09/10 12:06:17;;;;;;;22.67;8.63;;;31.20;99.90;;;;;;5070745;28;20162;-78
2023/09/10 12:08:43;;;;;;;24.50;9.65;;;31.20;99.90;;;;;;5071588;28;20527;-78
2023/09/10 12:11:10;;;;;;;23.40;9.00;;;31.20;99.90;;;;;;5070543;28;20024;-78
2023/09/10 12:13:36;;;;;;;28.65;9.10;;;31.50;99.90;;;;;;5070644;28;20036;-78
2023/09/10 12:16:04;;;;;;;29.30;9.10;;;31.60;99.90;;;;;;5070575;28;20024;-78
2023/09/10 12:18:31;;;;;;;25.52;8.93;;;31.40;99.90;;;;;;5070371;28;20021;-78
2023/09/10 12:20:58;;;;;;;25.88;9.43;;;31.40;99.90;;;;;;5070624;28;20028;-78
2023/09/10 12:23:24;;;;;;;24.75;9.18;;;31.20;99.90;;;;;;5070862;28;20052;-78
2023/09/10 12:25:58;;;;;;;26.88;9.25;;;31.30;99.90;;;;;;5069595;28;20052;-78
2023/09/10 12:28:25;;;;;;;25.20;9.18;;;31.10;99.90;;;;;;5070711;28;20348;-78
2023/09/10 12:30:51;;;;;;;23.90;9.32;;;31.10;99.90;;;;;;5070551;28;20078;-78
2023/09/10 12:33:20;;;;;;;27.38;9.18;;;31.10;99.90;;;;;;5069976;28;20037;-78
2023/09/10 12:35:46;;;;;;;26.35;8.48;;;30.90;99.90;;;;;;5069152;28;20044;-79